createdAt,value
2023-03-18T00:02:22.256Z,68.40
2023-03-18T00:04:49.901Z,68.20
2023-03-18T00:07:17.439Z,68.40
2023-03-18T00:09:44.943Z,68.20
2023-03-18T00:12:12.607Z,68.20
2023-03-18T00:14:40.093Z,68.10
2023-03-18T00:17:08.438Z,68.20
2023-03-18T00:19:36.137Z,68.20
2023-03-18T00:22:03.469Z,68.50
2023-03-18T00:24:30.874Z,68.60
2023-03-18T00:26:58.507Z,68.60
2023-03-18T00:29:26.245Z,68.90
2023-03-18T00:31:54.100Z,68.90
2023-03-18T00:34:21.363Z,69.00
2023-03-18T00:36:51.262Z,69.20
2023-03-18T00:39:21.908Z,69.10
2023-03-18T00:41:50.045Z,69.30
2023-03-18T00:44:18.182Z,69.30
2023-03-18T00:46:45.877Z,69.50
2023-03-18T00:49:14.478Z,69.40
2023-03-18T00:51:44.406Z,69.60
2023-03-18T00:54:14.272Z,69.80
2023-03-18T00:56:41.712Z,69.90
2023-03-18T00:59:09.376Z,69.60
2023-03-18T01:01:38.291Z,69.40
2023-03-18T01:04:07.260Z,69.60
2023-03-18T01:06:38.061Z,69.50
2023-03-18T01:09:09.145Z,69.40
2023-03-18T01:11:36.892Z,69.20
2023-03-18T01:14:05.056Z,69.10
2023-03-18T01:16:32.590Z,68.80
2023-03-18T01:19:00.481Z,68.80
2023-03-18T01:21:28.276Z,68.60
2023-03-18T01:23:55.662Z,68.50
2023-03-18T01:26:24.009Z,68.80
2023-03-18T01:28:52.139Z,68.80
2023-03-18T01:31:19.875Z,68.70
2023-03-18T01:33:49.030Z,68.70
2023-03-18T01:36:16.797Z,68.70
2023-03-18T01:38:44.682Z,68.40
2023-03-18T01:41:12.554Z,68.50
2023-03-18T01:43:41.847Z,68.50
2023-03-18T01:46:41.591Z,68.50
2023-03-18T01:49:26.912Z,68.70
2023-03-18T01:52:19.764Z,68.60
2023-03-18T01:54:57.484Z,68.80
2023-03-18T01:57:25.613Z,68.60
2023-03-18T01:59:55.050Z,68.80
2023-03-18T02:02:22.494Z,68.90
2023-03-18T02:04:56.121Z,69.00
2023-03-18T02:07:25.543Z,69.30
2023-03-18T02:09:54.376Z,69.10
2023-03-18T02:13:00.806Z,68.90
2023-03-18T02:15:30.862Z,69.00
2023-03-18T02:18:20.336Z,69.00
2023-03-18T02:20:56.749Z,68.70
2023-03-18T02:23:35.048Z,68.80
2023-03-18T02:26:19.442Z,68.90
2023-03-18T02:28:49.852Z,69.10
2023-03-18T02:31:18.645Z,68.90
2023-03-18T02:33:47.709Z,68.80
2023-03-18T02:36:29.004Z,68.90
2023-03-18T02:38:57.956Z,68.80
2023-03-18T02:41:29.410Z,68.70
2023-03-18T02:43:57.036Z,68.70
2023-03-18T02:46:42.159Z,68.70
2023-03-18T02:49:09.954Z,68.40
2023-03-18T02:51:38.180Z,68.60
2023-03-18T02:54:12.338Z,68.50
2023-03-18T02:56:41.675Z,68.10
2023-03-18T02:59:10.552Z,68.40
2023-03-18T03:01:41.483Z,68.30
2023-03-18T03:04:09.172Z,68.60
2023-03-18T03:06:37.659Z,68.60
2023-03-18T03:09:06.810Z,68.60
2023-03-18T03:11:35.922Z,68.80
2023-03-18T03:14:04.038Z,68.90
2023-03-18T03:16:31.753Z,69.30
2023-03-18T03:18:59.233Z,69.50
2023-03-18T03:21:26.896Z,69.50
2023-03-18T03:23:54.970Z,69.50
2023-03-18T03:26:22.816Z,69.60
2023-03-18T03:28:50.462Z,69.60
2023-03-18T03:31:18.563Z,69.70
2023-03-18T03:33:46.135Z,69.70
2023-03-18T03:36:17.425Z,69.80
2023-03-18T03:38:44.931Z,69.70
2023-03-18T03:41:14.464Z,69.80
2023-03-18T03:43:42.437Z,69.80
2023-03-18T03:46:11.294Z,69.90
2023-03-18T03:48:39.991Z,70.20
2023-03-18T03:51:08.060Z,70.30
2023-03-18T03:53:36.600Z,70.10
2023-03-18T03:56:05.165Z,70.30
2023-03-18T03:58:32.702Z,70.30
2023-03-18T04:01:00.108Z,70.20
2023-03-18T04:03:28.713Z,70.30
2023-03-18T04:05:56.663Z,70.30
2023-03-18T04:08:24.045Z,70.30
2023-03-18T04:10:54.785Z,70.50
2023-03-18T04:13:22.103Z,70.50
2023-03-18T04:15:49.744Z,70.30
2023-03-18T04:18:17.191Z,70.20
2023-03-18T04:20:45.090Z,70.40
2023-03-18T04:23:12.992Z,70.40
2023-03-18T04:25:40.533Z,70.80
2023-03-18T04:28:08.016Z,70.60
2023-03-18T04:30:35.785Z,70.70
2023-03-18T04:33:04.828Z,70.70
2023-03-18T04:35:32.544Z,70.80
2023-03-18T04:38:00.032Z,70.90
2023-03-18T04:40:27.629Z,70.90
2023-03-18T04:42:55.049Z,71.00
2023-03-18T04:45:23.294Z,71.30
2023-03-18T04:47:50.975Z,71.30
2023-03-18T04:50:19.786Z,71.40
2023-03-18T04:52:48.676Z,71.30
2023-03-18T04:55:18.679Z,71.40
2023-03-18T04:57:46.065Z,71.70
2023-03-18T05:00:17.538Z,71.60
2023-03-18T05:02:46.315Z,71.70
2023-03-18T05:05:14.075Z,71.80
2023-03-18T05:07:42.669Z,71.90
2023-03-18T05:10:10.893Z,71.80
2023-03-18T05:12:38.698Z,72.00
2023-03-18T05:15:06.935Z,71.90
2023-03-18T05:17:34.793Z,72.00
2023-03-18T05:20:02.672Z,72.00
2023-03-18T05:22:30.253Z,72.30
2023-03-18T05:24:57.701Z,72.30
2023-03-18T05:27:25.471Z,72.30
2023-03-18T05:29:53.231Z,72.30
2023-03-18T05:32:26.217Z,72.30
2023-03-18T05:34:53.873Z,72.10
2023-03-18T05:37:21.185Z,72.10
2023-03-18T05:39:50.169Z,72.10
2023-03-18T05:42:17.740Z,72.10
2023-03-18T05:44:45.206Z,71.90
2023-03-18T05:47:12.715Z,71.90
2023-03-18T05:49:43.501Z,72.00
2023-03-18T05:52:14.041Z,72.00
2023-03-18T05:54:42.085Z,71.90
2023-03-18T05:57:09.672Z,72.10
2023-03-18T05:59:39.681Z,71.90
2023-03-18T06:02:07.166Z,71.90
2023-03-18T06:04:41.919Z,72.00
2023-03-18T06:07:09.403Z,72.20
2023-03-18T06:09:37.187Z,71.60
2023-03-18T06:12:05.738Z,72.10
2023-03-18T06:14:33.091Z,72.00
2023-03-18T06:17:00.445Z,71.90
2023-03-18T06:19:29.009Z,71.80
2023-03-18T06:21:56.296Z,71.60
2023-03-18T06:24:24.637Z,71.40
2023-03-18T06:26:52.818Z,71.70
2023-03-18T06:29:20.372Z,71.50
2023-03-18T06:31:47.904Z,71.20
2023-03-18T06:34:15.347Z,71.20
2023-03-18T06:36:42.644Z,70.90
2023-03-18T06:39:11.019Z,70.50
2023-03-18T06:41:39.042Z,70.30
2023-03-18T06:44:06.498Z,70.30
2023-03-18T06:46:34.047Z,70.00
2023-03-18T06:49:02.088Z,70.30
2023-03-18T06:51:29.337Z,69.20
2023-03-18T06:53:56.968Z,69.20
2023-03-18T06:56:24.416Z,68.50
2023-03-18T06:58:52.217Z,67.70
2023-03-18T07:01:19.913Z,68.00
2023-03-18T07:03:47.292Z,67.30
2023-03-18T07:06:15.724Z,67.40
2023-03-18T07:08:43.183Z,66.60
2023-03-18T07:11:10.622Z,65.70
2023-03-18T07:13:38.542Z,65.70
2023-03-18T07:16:06.279Z,65.10
2023-03-18T07:18:33.728Z,65.20
2023-03-18T07:21:01.661Z,64.60
2023-03-18T07:23:29.155Z,64.70
2023-03-18T07:25:57.703Z,64.80
2023-03-18T07:28:26.006Z,64.90
2023-03-18T07:30:54.338Z,64.80
2023-03-18T07:33:21.870Z,64.50
2023-03-18T07:35:49.121Z,64.80
2023-03-18T07:38:18.423Z,64.90
2023-03-18T07:40:45.834Z,65.00
2023-03-18T07:43:13.360Z,65.10
2023-03-18T07:45:41.141Z,64.80
2023-03-18T07:48:08.708Z,65.10
2023-03-18T07:50:37.518Z,65.00
2023-03-18T07:53:04.954Z,64.90
2023-03-18T07:55:33.532Z,65.00
2023-03-18T07:58:01.329Z,64.00
2023-03-18T08:00:29.845Z,63.20
2023-03-18T08:02:57.510Z,63.60
2023-03-18T08:05:25.678Z,63.40
2023-03-18T08:07:52.936Z,63.40
2023-03-18T08:10:21.144Z,62.60
2023-03-18T08:12:53.063Z,62.40
2023-03-18T08:15:22.277Z,61.50
2023-03-18T08:17:50.559Z,61.00
2023-03-18T08:20:18.135Z,60.70
2023-03-18T08:22:46.931Z,61.10
2023-03-18T08:25:15.311Z,60.80
2023-03-18T08:27:43.146Z,59.30
2023-03-18T08:30:12.151Z,58.40
2023-03-18T08:32:40.643Z,58.60
2023-03-18T08:35:10.110Z,58.40
2023-03-18T08:37:38.614Z,58.00
2023-03-18T08:40:07.002Z,57.30
2023-03-18T08:42:34.346Z,57.30
2023-03-18T08:45:02.132Z,57.70
2023-03-18T08:47:30.674Z,57.50
2023-03-18T08:49:58.078Z,56.80
2023-03-18T08:52:25.996Z,56.30
2023-03-18T08:54:53.278Z,56.40
2023-03-18T08:57:20.559Z,55.80
2023-03-18T08:59:50.239Z,54.00
2023-03-18T09:02:18.777Z,54.50
2023-03-18T09:04:47.748Z,53.70
2023-03-18T09:07:17.884Z,52.80
2023-03-18T09:09:47.160Z,53.20
2023-03-18T09:12:15.117Z,53.10
2023-03-18T09:14:44.067Z,52.60
2023-03-18T09:17:11.860Z,53.10
2023-03-18T09:19:39.438Z,53.30
2023-03-18T09:22:06.830Z,53.80
2023-03-18T09:24:35.845Z,53.10
2023-03-18T09:27:03.309Z,53.10
2023-03-18T09:29:30.866Z,53.90
2023-03-18T09:31:58.383Z,52.40
2023-03-18T09:34:25.718Z,52.00
2023-03-18T09:36:53.093Z,52.00
2023-03-18T09:39:22.146Z,51.70
2023-03-18T09:42:36.659Z,50.30
2023-03-18T09:45:27.908Z,50.50
2023-03-18T09:48:17.120Z,50.50
2023-03-18T09:51:18.770Z,51.00
2023-03-18T09:54:12.532Z,50.70
2023-03-18T09:56:40.820Z,49.30
2023-03-18T09:59:20.600Z,49.00
2023-03-18T10:01:54.423Z,49.30
2023-03-18T10:04:48.785Z,48.50
2023-03-18T10:07:22.497Z,48.50
2023-03-18T10:09:59.874Z,48.30
2023-03-18T10:12:42.162Z,46.20
2023-03-18T10:15:54.287Z,46.10
2023-03-18T10:18:34.319Z,45.60
2023-03-18T10:21:28.777Z,46.50
2023-03-18T10:24:22.800Z,46.50
2023-03-18T10:26:59.649Z,46.60
2023-03-18T10:29:45.652Z,46.00
2023-03-18T10:32:57.809Z,46.80
2023-03-18T10:36:08.378Z,46.10
2023-03-18T10:38:43.184Z,45.00
2023-03-18T10:41:24.240Z,44.30
2023-03-18T10:43:56.991Z,44.50
2023-03-18T10:46:27.347Z,44.80
2023-03-18T10:49:09.288Z,44.60
2023-03-18T10:51:50.716Z,45.20
2023-03-18T10:54:33.510Z,45.20
2023-03-18T10:57:00.858Z,44.60
2023-03-18T10:59:29.344Z,44.40
2023-03-18T11:02:05.136Z,44.50
2023-03-18T11:04:42.704Z,44.20
2023-03-18T11:07:19.157Z,44.40
2023-03-18T11:09:47.341Z,43.80
2023-03-18T11:12:19.330Z,42.10
2023-03-18T11:14:51.678Z,42.40
2023-03-18T11:17:22.828Z,44.10
2023-03-18T11:20:15.433Z,43.90
2023-03-18T11:22:47.735Z,44.60
2023-03-18T11:25:21.054Z,43.40
2023-03-18T11:28:12.240Z,44.10
2023-03-18T11:30:50.096Z,42.00
2023-03-18T11:33:18.713Z,44.70
2023-03-18T11:36:00.160Z,43.90
2023-03-18T11:38:36.210Z,44.10
2023-03-18T11:41:09.033Z,44.40
2023-03-18T11:43:38.372Z,42.20
2023-03-18T11:46:09.551Z,44.80
2023-03-18T11:48:40.587Z,44.00
2023-03-18T11:51:32.926Z,44.50
2023-03-18T11:54:19.948Z,45.00
2023-03-18T11:57:00.981Z,42.70
2023-03-18T11:59:38.278Z,44.10
2023-03-18T12:02:32.662Z,43.40
2023-03-18T12:05:37.439Z,44.50
2023-03-18T12:08:23.355Z,43.30
2023-03-18T12:11:12.142Z,43.40
2023-03-18T12:13:55.905Z,43.60
2023-03-18T12:17:06.264Z,42.50
2023-03-18T12:20:10.900Z,42.30
2023-03-18T12:22:49.244Z,43.30
2023-03-18T12:25:30.803Z,44.20
2023-03-18T12:28:22.269Z,43.50
2023-03-18T12:30:53.604Z,43.90
2023-03-18T12:34:06.526Z,43.50
2023-03-18T12:37:11.010Z,43.10
2023-03-18T12:40:07.993Z,44.30
2023-03-18T12:43:05.743Z,44.40
2023-03-18T12:45:43.967Z,44.10
2023-03-18T12:48:23.612Z,44.00
2023-03-18T12:51:12.917Z,44.90
2023-03-18T12:53:47.212Z,45.00
2023-03-18T12:56:22.482Z,45.60
2023-03-18T12:58:55.523Z,45.20
2023-03-18T13:01:31.744Z,45.30
2023-03-18T13:04:04.852Z,45.90
2023-03-18T13:07:06.331Z,45.50
2023-03-18T13:09:43.109Z,45.90
2023-03-18T13:12:24.607Z,46.10
2023-03-18T13:15:13.480Z,46.40
2023-03-18T13:17:45.013Z,45.10
2023-03-18T13:20:22.008Z,45.10
2023-03-18T13:23:09.087Z,45.70
2023-03-18T13:25:44.653Z,45.40
2023-03-18T13:28:39.561Z,44.10
2023-03-18T13:31:21.591Z,44.20
2023-03-18T13:34:00.760Z,45.00
2023-03-18T13:36:57.213Z,45.10
2023-03-18T13:39:39.291Z,44.30
2023-03-18T13:42:15.500Z,44.80
2023-03-18T13:45:07.485Z,46.20
2023-03-18T13:47:39.085Z,46.20
2023-03-18T13:50:40.349Z,46.90
2023-03-18T13:53:33.882Z,46.20
2023-03-18T13:56:08.774Z,46.40
2023-03-18T13:58:48.579Z,46.10
2023-03-18T14:01:49.827Z,46.60
2023-03-18T14:04:31.421Z,47.50
2023-03-18T14:07:18.151Z,46.40
2023-03-18T14:09:52.009Z,46.70
2023-03-18T14:12:40.540Z,46.10
2023-03-18T14:15:13.218Z,47.10
2023-03-18T14:17:58.793Z,46.50
2023-03-18T14:20:39.923Z,45.80
2023-03-18T14:23:33.649Z,46.50
2023-03-18T14:26:22.525Z,45.40
2023-03-18T14:28:56.298Z,44.80
2023-03-18T14:31:34.883Z,44.90
2023-03-18T14:34:16.874Z,44.30
2023-03-18T14:36:44.207Z,44.60
2023-03-18T14:39:22.350Z,45.20
2023-03-18T14:41:55.419Z,46.40
2023-03-18T14:44:42.002Z,46.60
2023-03-18T14:47:37.523Z,47.20
2023-03-18T14:50:18.958Z,47.40
2023-03-18T14:52:57.035Z,47.20
2023-03-18T14:55:34.448Z,47.90
2023-03-18T14:58:03.732Z,47.20
2023-03-18T15:00:36.159Z,47.40
2023-03-18T15:03:09.434Z,46.50
2023-03-18T15:05:40.476Z,48.40
2023-03-18T15:08:20.793Z,48.10
2023-03-18T15:10:51.985Z,49.00
2023-03-18T15:13:22.783Z,48.50
2023-03-18T15:15:55.144Z,48.80
2023-03-18T15:18:40.826Z,48.50
2023-03-18T15:21:15.578Z,48.10
2023-03-18T15:23:55.168Z,47.80
2023-03-18T15:26:45.978Z,49.10
2023-03-18T15:29:54.001Z,48.80
2023-03-18T15:32:30.501Z,48.90
2023-03-18T15:35:20.906Z,48.00
2023-03-18T15:38:03.409Z,49.10
2023-03-18T15:40:33.229Z,50.10
2023-03-18T15:43:09.899Z,50.60
2023-03-18T15:45:53.176Z,51.60
2023-03-18T15:48:35.729Z,51.80
2023-03-18T15:51:06.235Z,52.00
2023-03-18T15:53:45.296Z,51.80
2023-03-18T15:56:16.542Z,52.80
2023-03-18T15:58:49.068Z,53.30
2023-03-18T16:01:18.575Z,53.80
2023-03-18T16:03:47.082Z,54.20
2023-03-18T16:06:15.979Z,54.60
2023-03-18T16:08:43.398Z,55.00
2023-03-18T16:11:13.990Z,54.90
2023-03-18T16:13:43.977Z,55.40
2023-03-18T16:16:37.702Z,55.50
2023-03-18T16:19:12.393Z,55.80
2023-03-18T16:21:39.720Z,56.40
2023-03-18T16:24:07.105Z,56.70
2023-03-18T16:26:34.992Z,56.90
2023-03-18T16:29:02.952Z,57.40
2023-03-18T16:31:30.351Z,57.00
2023-03-18T16:33:57.963Z,57.50
2023-03-18T16:36:35.288Z,57.60
2023-03-18T16:39:14.017Z,57.60
2023-03-18T16:41:41.757Z,57.50
2023-03-18T16:44:14.212Z,57.80
2023-03-18T16:46:44.270Z,58.20
2023-03-18T16:49:23.138Z,58.40
2023-03-18T16:51:51.084Z,59.20
2023-03-18T16:54:26.164Z,59.40
2023-03-18T16:56:59.886Z,59.50
2023-03-18T16:59:35.783Z,59.40
2023-03-18T17:02:04.629Z,59.50
2023-03-18T17:04:36.308Z,59.80
2023-03-18T17:07:05.416Z,60.40
2023-03-18T17:09:32.729Z,60.70
2023-03-18T17:12:05.414Z,60.80
2023-03-18T17:14:40.294Z,61.20
2023-03-18T17:17:19.355Z,61.30
2023-03-18T17:19:47.088Z,61.50
2023-03-18T17:22:24.444Z,61.90
2023-03-18T17:24:52.184Z,62.40
2023-03-18T17:27:27.959Z,62.20
2023-03-18T17:30:07.435Z,62.50
2023-03-18T17:32:41.833Z,62.80
2023-03-18T17:35:24.269Z,63.10
2023-03-18T17:37:52.704Z,63.50
2023-03-18T17:40:21.716Z,63.80
2023-03-18T17:42:52.026Z,64.30
2023-03-18T17:45:29.548Z,64.70
2023-03-18T17:48:23.192Z,65.00
2023-03-18T17:50:59.703Z,65.30
2023-03-18T17:53:33.160Z,65.50
2023-03-18T17:56:02.834Z,65.80
2023-03-18T17:58:32.661Z,66.30
2023-03-18T18:01:30.424Z,66.40
2023-03-18T18:04:01.170Z,66.30
2023-03-18T18:06:29.720Z,66.50
2023-03-18T18:09:01.350Z,67.00
2023-03-18T18:11:39.137Z,67.30
2023-03-18T18:14:29.165Z,67.50
2023-03-18T18:16:57.800Z,67.60
2023-03-18T18:19:25.167Z,67.70
2023-03-18T18:21:53.457Z,67.70
2023-03-18T18:24:24.669Z,67.80
2023-03-18T18:26:52.808Z,67.80
2023-03-18T18:29:23.298Z,68.00
2023-03-18T18:31:51.496Z,68.10
2023-03-18T18:34:22.297Z,68.20
2023-03-18T18:36:53.209Z,68.60
2023-03-18T18:39:21.249Z,68.80
2023-03-18T18:41:48.946Z,68.80
2023-03-18T18:44:16.483Z,68.80
2023-03-18T18:46:43.933Z,69.00
2023-03-18T18:49:22.602Z,69.20
2023-03-18T18:51:55.999Z,69.30
2023-03-18T18:54:26.267Z,69.30
2023-03-18T18:56:54.012Z,69.70
2023-03-18T18:59:27.145Z,69.80
2023-03-18T19:01:56.640Z,70.10
2023-03-18T19:04:24.824Z,70.30
2023-03-18T19:06:54.070Z,70.40
2023-03-18T19:09:27.091Z,70.20
2023-03-18T19:11:56.791Z,70.40
2023-03-18T19:14:28.061Z,70.50
2023-03-18T19:16:59.263Z,70.70
2023-03-18T19:19:33.314Z,70.90
2023-03-18T19:22:04.869Z,71.10
2023-03-18T19:24:37.754Z,71.70
2023-03-18T19:27:10.825Z,71.80
2023-03-18T19:29:39.201Z,71.80
2023-03-18T19:32:08.505Z,72.30
2023-03-18T19:34:36.238Z,72.70
2023-03-18T19:37:06.459Z,72.40
2023-03-18T19:39:34.186Z,72.60
2023-03-18T19:42:02.051Z,72.50
2023-03-18T19:44:29.446Z,72.30
2023-03-18T19:47:01.623Z,72.10
2023-03-18T19:49:36.574Z,72.50
2023-03-18T19:52:27.389Z,72.60
2023-03-18T19:54:55.809Z,72.80
2023-03-18T19:57:29.072Z,73.00
2023-03-18T20:00:01.104Z,73.10
2023-03-18T20:02:30.939Z,73.20
2023-03-18T20:05:00.914Z,73.20
2023-03-18T20:07:31.423Z,73.40
2023-03-18T20:09:59.046Z,73.60
2023-03-18T20:12:35.488Z,74.40
2023-03-18T20:15:12.777Z,74.70
2023-03-18T20:17:43.221Z,75.20
2023-03-18T20:20:25.163Z,74.80
2023-03-18T20:23:08.637Z,74.80
2023-03-18T20:25:41.654Z,75.90
2023-03-18T20:28:16.464Z,76.90
2023-03-18T20:30:45.666Z,76.70
2023-03-18T20:33:13.397Z,75.60
2023-03-18T20:35:43.572Z,74.90
2023-03-18T20:38:15.389Z,75.10
2023-03-18T20:40:48.669Z,75.10
2023-03-18T20:43:21.835Z,76.00
2023-03-18T20:45:53.250Z,77.40
2023-03-18T20:48:22.648Z,78.80
2023-03-18T20:50:52.276Z,79.50
2023-03-18T20:53:23.674Z,78.90
2023-03-18T20:55:51.746Z,80.40
2023-03-18T20:58:27.820Z,81.20
2023-03-18T21:00:55.823Z,82.00
2023-03-18T21:03:31.311Z,82.40
2023-03-18T21:06:00.529Z,82.50
2023-03-18T21:08:29.127Z,82.60
2023-03-18T21:11:00.279Z,82.90
2023-03-18T21:13:39.497Z,82.90
2023-03-18T21:16:13.339Z,82.90
2023-03-18T21:18:45.846Z,82.80
2023-03-18T21:21:28.039Z,83.50
2023-03-18T21:23:55.823Z,85.00
2023-03-18T21:26:23.660Z,85.00
2023-03-18T21:28:51.525Z,84.80
2023-03-18T21:31:25.303Z,84.50
2023-03-18T21:33:53.725Z,84.30
2023-03-18T21:36:22.247Z,84.10
2023-03-18T21:38:50.047Z,84.20
2023-03-18T21:41:23.951Z,84.40
2023-03-18T21:43:51.867Z,84.80
2023-03-18T21:46:22.385Z,85.30
2023-03-18T21:48:49.794Z,86.00
2023-03-18T21:51:39.554Z,86.50
2023-03-18T21:54:22.386Z,87.00
2023-03-18T21:56:50.286Z,87.60
2023-03-18T21:59:17.553Z,88.00
2023-03-18T22:01:45.002Z,87.90
2023-03-18T22:04:12.822Z,88.20
2023-03-18T22:06:40.490Z,88.80
2023-03-18T22:09:09.613Z,89.00
2023-03-18T22:11:37.628Z,89.00
2023-03-18T22:14:04.958Z,89.40
2023-03-18T22:16:32.595Z,89.60
2023-03-18T22:18:59.932Z,89.40
2023-03-18T22:21:29.135Z,89.60
2023-03-18T22:23:58.389Z,89.80
2023-03-18T22:26:26.412Z,90.00
2023-03-18T22:28:53.918Z,90.30
2023-03-18T22:31:24.781Z,90.00
2023-03-18T22:33:52.708Z,89.70
2023-03-18T22:36:25.790Z,89.70
2023-03-18T22:38:53.257Z,89.70
2023-03-18T22:41:22.461Z,89.40
2023-03-18T22:43:51.979Z,89.20
2023-03-18T22:46:19.466Z,89.20
2023-03-18T22:48:47.640Z,89.10
2023-03-18T22:51:30.110Z,88.90
2023-03-18T22:53:57.568Z,88.60
2023-03-18T22:56:27.973Z,88.70
2023-03-18T22:58:55.855Z,88.70
2023-03-18T23:01:31.223Z,88.80
2023-03-18T23:03:59.147Z,89.60
2023-03-18T23:06:27.501Z,90.20
2023-03-18T23:08:54.872Z,90.70
2023-03-18T23:11:22.202Z,91.00
2023-03-18T23:13:50.993Z,91.20
2023-03-18T23:16:21.357Z,91.30
2023-03-18T23:18:49.630Z,91.10
2023-03-18T23:21:22.501Z,91.10
2023-03-18T23:23:50.437Z,91.20
2023-03-18T23:26:17.950Z,91.30
2023-03-18T23:28:46.039Z,91.40
2023-03-18T23:31:15.454Z,91.70
2023-03-18T23:33:43.850Z,91.80
2023-03-18T23:36:12.064Z,91.80
2023-03-18T23:38:39.808Z,92.20
2023-03-18T23:41:07.530Z,92.20
2023-03-18T23:43:34.813Z,92.20
2023-03-18T23:46:02.572Z,92.20
2023-03-18T23:48:30.431Z,92.20
2023-03-18T23:50:57.996Z,92.20
2023-03-18T23:53:25.474Z,92.20
2023-03-18T23:55:53.311Z,92.20
2023-03-18T23:58:21.056Z,92.20
